createdAt,value
2022-08-22T00:02:33.586Z,7.65
2022-08-22T00:03:01.248Z,5.90
2022-08-22T00:03:12.644Z,5.78
2022-08-22T00:08:19.767Z,7.60
2022-08-22T00:14:06.615Z,7.25
2022-08-22T00:19:43.675Z,6.85
2022-08-22T00:25:32.781Z,7.80
2022-08-22T00:31:07.891Z,7.28
2022-08-22T00:36:39.427Z,7.20
2022-08-22T00:42:29.335Z,7.70
2022-08-22T00:48:23.663Z,7.78
2022-08-22T00:54:16.772Z,7.93
2022-08-22T00:59:42.361Z,7.30
2022-08-22T01:05:17.773Z,8.10
2022-08-22T01:10:45.376Z,7.90
2022-08-22T01:16:31.093Z,7.82
2022-08-22T01:22:06.420Z,8.30
2022-08-22T01:27:59.589Z,8.00
2022-08-22T01:33:33.449Z,8.75
2022-08-22T01:39:04.115Z,7.90
2022-08-22T01:44:53.902Z,8.52
2022-08-22T01:50:25.065Z,8.30
2022-08-22T01:56:14.462Z,8.27
2022-08-22T02:01:44.517Z,8.48
2022-08-22T02:07:50.923Z,8.00
2022-08-22T02:13:12.670Z,8.77
2022-08-22T02:18:50.191Z,9.20
2022-08-22T02:24:27.912Z,9.30
2022-08-22T02:30:06.147Z,9.63
2022-08-22T02:35:46.878Z,8.57
2022-08-22T02:41:49.660Z,9.40
2022-08-22T02:47:38.708Z,9.88
2022-08-22T02:53:15.427Z,8.95
2022-08-22T02:58:48.816Z,8.48
2022-08-22T03:04:24.717Z,9.10
2022-08-22T03:09:58.000Z,8.67
2022-08-22T03:15:19.782Z,8.60
2022-08-22T03:20:45.755Z,8.88
2022-08-22T03:26:15.511Z,8.07
2022-08-22T03:31:38.052Z,8.48
2022-08-22T03:37:22.894Z,9.45
2022-08-22T03:43:03.643Z,9.02
2022-08-22T03:48:34.663Z,8.13
2022-08-22T03:54:39.641Z,9.05
2022-08-22T04:00:27.517Z,8.98
2022-08-22T04:06:11.454Z,8.93
2022-08-22T04:11:52.720Z,9.37
2022-08-22T04:17:36.216Z,9.13
2022-08-22T04:23:36.218Z,9.68
2022-08-22T04:29:08.831Z,10.02
2022-08-22T04:34:37.720Z,9.77
2022-08-22T04:40:05.615Z,9.05
2022-08-22T04:45:36.754Z,8.95
2022-08-22T04:51:06.601Z,8.48
2022-08-22T04:56:59.467Z,8.80
2022-08-22T05:02:25.122Z,7.97
2022-08-22T05:07:52.904Z,7.73
2022-08-22T05:13:25.039Z,6.35
2022-08-22T05:18:52.053Z,6.65
2022-08-22T05:24:33.635Z,6.30
2022-08-22T05:30:05.649Z,5.30
2022-08-22T05:35:34.965Z,5.78
2022-08-22T05:41:05.300Z,7.05
2022-08-22T05:46:43.502Z,5.85
2022-08-22T05:52:26.294Z,5.25
2022-08-22T05:58:01.811Z,5.07
2022-08-22T06:03:30.362Z,4.93
2022-08-22T06:09:07.091Z,4.70
2022-08-22T06:14:54.514Z,5.40
2022-08-22T06:20:28.737Z,4.75
2022-08-22T06:25:54.263Z,4.50
2022-08-22T06:31:42.307Z,5.20
2022-08-22T06:37:08.267Z,4.43
2022-08-22T06:42:33.703Z,4.30
2022-08-22T06:48:07.829Z,4.10
2022-08-22T06:53:47.754Z,4.15
2022-08-22T06:59:15.578Z,4.20
2022-08-22T07:04:37.557Z,4.80
2022-08-22T07:10:00.362Z,4.88
2022-08-22T07:15:32.823Z,4.40
2022-08-22T07:20:58.072Z,4.88
2022-08-22T07:31:54.115Z,4.88
2022-08-22T07:37:53.574Z,4.43
2022-08-22T07:43:40.294Z,3.85
2022-08-22T07:49:20.057Z,4.38
2022-08-22T07:54:54.333Z,4.30
2022-08-22T08:00:19.652Z,3.83
2022-08-22T08:05:44.717Z,3.40
2022-08-22T08:11:09.735Z,4.20
2022-08-22T08:16:41.840Z,3.60
2022-08-22T08:22:04.046Z,4.05
2022-08-22T08:27:34.086Z,3.55
2022-08-22T08:33:25.528Z,3.83
2022-08-22T08:39:03.773Z,3.42
2022-08-22T08:44:48.314Z,3.47
2022-08-22T08:50:23.908Z,3.35
2022-08-22T08:55:57.891Z,3.72
2022-08-22T09:01:22.483Z,3.77
2022-08-22T09:07:29.725Z,4.20
2022-08-22T09:13:15.674Z,4.00
2022-08-22T09:18:50.731Z,4.43
2022-08-22T09:30:01.964Z,4.07
2022-08-22T09:35:45.140Z,4.50
2022-08-22T09:41:12.806Z,4.20
2022-08-22T09:46:55.067Z,4.18
2022-08-22T09:52:34.211Z,4.38
2022-08-22T09:58:11.349Z,4.63
2022-08-22T10:03:45.567Z,3.53
2022-08-22T10:09:25.216Z,4.63
2022-08-22T10:15:15.525Z,4.22
2022-08-22T10:21:01.293Z,3.78
2022-08-22T10:26:38.438Z,3.70
2022-08-22T10:32:13.946Z,4.13
2022-08-22T10:37:59.458Z,4.05
2022-08-22T10:43:56.576Z,4.07
2022-08-22T10:49:46.440Z,4.28
2022-08-22T10:55:24.488Z,4.90
2022-08-22T11:01:00.494Z,4.80
2022-08-22T11:07:09.260Z,4.70
2022-08-22T11:12:42.466Z,4.05
2022-08-22T11:18:41.652Z,4.60
2022-08-22T11:24:55.980Z,4.25
2022-08-22T11:30:25.840Z,4.20
2022-08-22T11:35:54.365Z,4.85
2022-08-22T11:41:30.907Z,4.28
2022-08-22T11:46:55.397Z,4.30
2022-08-22T11:52:24.313Z,4.40
2022-08-22T11:58:13.460Z,4.90
2022-08-22T12:03:58.217Z,4.07
2022-08-22T12:09:39.439Z,4.37
2022-08-22T12:15:18.791Z,4.55
2022-08-22T12:21:16.700Z,4.93
2022-08-22T12:27:12.653Z,4.65
2022-08-22T12:33:04.493Z,4.72
2022-08-22T12:39:01.967Z,4.70
2022-08-22T12:45:07.907Z,4.53
2022-08-22T12:50:50.446Z,4.40
2022-08-22T12:56:30.708Z,4.32
2022-08-22T13:01:56.576Z,4.18
2022-08-22T13:07:25.065Z,4.65
2022-08-22T13:12:51.419Z,4.70
2022-08-22T13:18:30.221Z,4.35
2022-08-22T13:23:55.350Z,4.60
2022-08-22T13:29:26.219Z,5.40
2022-08-22T13:34:53.498Z,4.75
2022-08-22T13:40:24.296Z,4.30
2022-08-22T13:45:54.340Z,4.50
2022-08-22T13:51:23.760Z,5.10
2022-08-22T13:56:57.766Z,4.53
2022-08-22T14:02:43.131Z,4.78
2022-08-22T14:08:23.294Z,4.85
2022-08-22T14:13:56.085Z,4.15
2022-08-22T14:19:53.037Z,4.50
2022-08-22T14:25:25.016Z,4.80
2022-08-22T14:31:02.589Z,4.70
2022-08-22T14:37:03.600Z,4.97
2022-08-22T14:42:38.706Z,4.47
2022-08-22T14:48:30.328Z,5.30
2022-08-22T14:54:09.405Z,5.03
2022-08-22T14:59:46.998Z,5.03
2022-08-22T15:05:19.689Z,5.22
2022-08-22T15:10:42.336Z,5.30
2022-08-22T15:16:17.191Z,5.18
2022-08-22T15:21:41.394Z,4.45
2022-08-22T15:27:06.887Z,4.63
2022-08-22T15:32:31.162Z,5.00
2022-08-22T15:38:06.594Z,5.40
2022-08-22T15:43:35.671Z,4.93
2022-08-22T15:49:11.033Z,4.65
2022-08-22T15:54:54.529Z,5.20
2022-08-22T16:00:43.405Z,5.60
2022-08-22T16:06:09.946Z,4.95
2022-08-22T16:11:37.946Z,5.15
2022-08-22T16:17:03.429Z,4.63
2022-08-22T16:22:54.097Z,4.65
2022-08-22T16:28:56.995Z,4.55
2022-08-22T16:34:33.838Z,5.00
2022-08-22T16:39:58.740Z,5.47
2022-08-22T16:45:35.461Z,5.70
2022-08-22T16:51:13.781Z,4.68
2022-08-22T16:57:10.819Z,5.05
2022-08-22T17:02:55.370Z,5.22
2022-08-22T17:08:38.993Z,4.60
2022-08-22T17:14:22.660Z,4.35
2022-08-22T17:20:18.242Z,5.00
2022-08-22T17:25:46.165Z,5.70
2022-08-22T17:31:30.886Z,4.88
2022-08-22T17:37:06.682Z,5.00
2022-08-22T17:42:40.811Z,5.30
2022-08-22T17:48:11.471Z,4.53
2022-08-22T17:53:44.682Z,5.20
2022-08-22T17:59:20.668Z,5.85
2022-08-22T18:04:47.593Z,5.30
2022-08-22T18:10:22.348Z,5.88
2022-08-22T18:15:58.736Z,6.63
2022-08-22T18:21:35.449Z,6.53
2022-08-22T18:27:05.939Z,6.22
2022-08-22T18:32:35.926Z,7.13
2022-08-22T18:38:19.718Z,5.80
2022-08-22T18:43:45.874Z,6.72
2022-08-22T18:49:19.202Z,5.82
2022-08-22T18:54:56.105Z,6.20
2022-08-22T19:00:22.843Z,7.05
2022-08-22T19:06:22.358Z,7.40
2022-08-22T19:12:07.229Z,7.45
2022-08-22T19:17:34.929Z,6.47
2022-08-22T19:23:33.719Z,7.40
2022-08-22T19:29:10.514Z,8.35
2022-08-22T19:34:47.720Z,7.75
2022-08-22T19:40:11.412Z,7.80
2022-08-22T19:45:39.592Z,8.25
2022-08-22T19:51:24.629Z,8.40
2022-08-22T19:57:15.778Z,8.83
2022-08-22T20:02:58.178Z,8.27
2022-08-22T20:08:40.327Z,8.00
2022-08-22T20:14:30.061Z,8.07
2022-08-22T20:25:47.870Z,8.32
2022-08-22T20:31:20.960Z,8.65
2022-08-22T20:36:45.632Z,8.55
2022-08-22T20:42:12.619Z,7.75
2022-08-22T20:47:40.953Z,7.68
2022-08-22T20:53:22.230Z,7.82
2022-08-22T20:58:44.049Z,8.15
2022-08-22T21:04:06.540Z,8.30
2022-08-22T21:09:29.022Z,7.85
2022-08-22T21:14:50.841Z,8.57
2022-08-22T21:20:21.262Z,8.23
2022-08-22T21:26:11.041Z,8.18
2022-08-22T21:31:44.372Z,8.48
2022-08-22T21:37:23.965Z,7.82
2022-08-22T21:43:04.017Z,7.75
2022-08-22T21:48:57.791Z,7.90
2022-08-22T21:54:33.794Z,8.10
2022-08-22T21:59:59.778Z,9.85
2022-08-22T22:10:45.611Z,9.27
2022-08-22T22:16:09.344Z,8.98
2022-08-22T22:21:31.135Z,9.13
2022-08-22T22:26:53.171Z,9.10
2022-08-22T22:32:15.064Z,9.63
2022-08-22T22:37:36.997Z,9.35
2022-08-22T22:43:03.852Z,9.60
2022-08-22T22:48:25.735Z,9.90
2022-08-22T22:53:48.574Z,8.85
2022-08-22T22:59:13.115Z,8.98
2022-08-22T23:04:38.186Z,10.88
2022-08-22T23:10:01.471Z,10.27
2022-08-22T23:15:24.388Z,8.73
2022-08-22T23:20:46.246Z,9.88
2022-08-22T23:26:08.765Z,9.73
2022-08-22T23:31:40.501Z,10.32
2022-08-22T23:37:06.413Z,10.13
2022-08-22T23:42:28.461Z,8.95
2022-08-22T23:47:50.289Z,11.02
2022-08-22T23:53:12.103Z,10.00
2022-08-22T23:58:34.043Z,10.00
